sensor_id;sensor_type;location;lat;lon;timestamp;P1;durP1;ratioP1;P2;durP2;ratioP2
1010;SDS011;494;48.744;10.106;2024-01-27T13:56:34;685.07;;;637.80;;
1010;SDS011;494;48.744;10.106;2024-01-27T13:59:05;682.43;;;635.37;;
1010;SDS011;494;48.744;10.106;2024-01-27T14:01:35;668.00;;;621.50;;
1010;SDS011;494;48.744;10.106;2024-01-27T14:04:03;694.57;;;646.43;;
1010;SDS011;494;48.744;10.106;2024-01-27T14:06:35;698.77;;;650.57;;
1010;SDS011;494;48.744;10.106;2024-01-27T14:09:07;729.37;;;678.07;;
1010;SDS011;494;48.744;10.106;2024-01-27T21:50:45;141.15;;;101.03;;
1010;SDS011;494;48.744;10.106;2024-01-27T21:53:16;117.47;;;65.07;;
1010;SDS011;494;48.744;10.106;2024-01-27T21:55:46;119.55;;;75.75;;
1010;SDS011;494;48.744;10.106;2024-01-27T21:58:15;118.95;;;66.15;;
1010;SDS011;494;48.744;10.106;2024-01-27T22:00:44;124.40;;;68.55;;
1010;SDS011;494;48.744;10.106;2024-01-27T22:03:15;127.95;;;84.55;;
1010;SDS011;494;48.744;10.106;2024-01-27T22:05:49;121.72;;;72.80;;
1010;SDS011;494;48.744;10.106;2024-01-27T22:08:18;123.25;;;84.97;;
1010;SDS011;494;48.744;10.106;2024-01-27T22:10:52;125.72;;;82.03;;
1010;SDS011;494;48.744;10.106;2024-01-27T22:13:21;132.85;;;87.82;;
1010;SDS011;494;48.744;10.106;2024-01-27T22:15:50;137.55;;;87.97;;
1010;SDS011;494;48.744;10.106;2024-01-27T22:18:22;146.68;;;106.78;;
1010;SDS011;494;48.744;10.106;2024-01-27T22:20:53;136.98;;;91.00;;
1010;SDS011;494;48.744;10.106;2024-01-27T22:23:26;138.95;;;94.07;;
1010;SDS011;494;48.744;10.106;2024-01-27T22:25:56;133.93;;;85.40;;
1010;SDS011;494;48.744;10.106;2024-01-27T22:28:26;129.95;;;85.18;;
1010;SDS011;494;48.744;10.106;2024-01-27T22:30:55;124.05;;;82.13;;
1010;SDS011;494;48.744;10.106;2024-01-27T22:33:24;109.07;;;63.42;;
1010;SDS011;494;48.744;10.106;2024-01-27T22:35:56;104.10;;;63.20;;
1010;SDS011;494;48.744;10.106;2024-01-27T22:38:26;107.22;;;69.63;;
1010;SDS011;494;48.744;10.106;2024-01-27T22:40:55;104.22;;;68.90;;
1010;SDS011;494;48.744;10.106;2024-01-27T22:43:25;101.95;;;68.28;;
1010;SDS011;494;48.744;10.106;2024-01-27T22:45:57;107.07;;;69.45;;
1010;SDS011;494;48.744;10.106;2024-01-27T22:48:28;105.88;;;62.67;;
1010;SDS011;494;48.744;10.106;2024-01-27T22:50:59;105.57;;;62.95;;
1010;SDS011;494;48.744;10.106;2024-01-27T22:53:28;114.60;;;75.93;;
1010;SDS011;494;48.744;10.106;2024-01-27T22:55:57;115.75;;;78.22;;
1010;SDS011;494;48.744;10.106;2024-01-27T22:58:27;109.57;;;70.18;;
1010;SDS011;494;48.744;10.106;2024-01-27T23:00:58;108.70;;;66.25;;
1010;SDS011;494;48.744;10.106;2024-01-27T23:03:31;111.25;;;70.97;;
1010;SDS011;494;48.744;10.106;2024-01-27T23:06:01;114.35;;;73.70;;
1010;SDS011;494;48.744;10.106;2024-01-27T23:08:31;111.88;;;67.68;;
1010;SDS011;494;48.744;10.106;2024-01-27T23:11:02;115.35;;;77.72;;
1010;SDS011;494;48.744;10.106;2024-01-27T23:13:45;124.70;;;87.63;;
1010;SDS011;494;48.744;10.106;2024-01-27T23:16:15;118.43;;;83.55;;
1010;SDS011;494;48.744;10.106;2024-01-27T23:18:45;123.93;;;86.95;;
1010;SDS011;494;48.744;10.106;2024-01-27T23:21:16;114.95;;;74.85;;
1010;SDS011;494;48.744;10.106;2024-01-27T23:23:45;123.60;;;90.75;;
1010;SDS011;494;48.744;10.106;2024-01-27T23:26:14;125.22;;;90.55;;
1010;SDS011;494;48.744;10.106;2024-01-27T23:28:43;124.97;;;87.70;;
1010;SDS011;494;48.744;10.106;2024-01-27T23:31:12;126.28;;;89.05;;
1010;SDS011;494;48.744;10.106;2024-01-27T23:33:40;135.02;;;93.43;;
1010;SDS011;494;48.744;10.106;2024-01-27T23:36:09;149.90;;;88.28;;
1010;SDS011;494;48.744;10.106;2024-01-27T23:38:40;150.27;;;94.63;;
1010;SDS011;494;48.744;10.106;2024-01-27T23:41:10;157.70;;;110.60;;
1010;SDS011;494;48.744;10.106;2024-01-27T23:43:40;143.30;;;84.90;;
1010;SDS011;494;48.744;10.106;2024-01-27T23:46:15;146.57;;;83.28;;
1010;SDS011;494;48.744;10.106;2024-01-27T23:48:45;144.10;;;94.32;;
1010;SDS011;494;48.744;10.106;2024-01-27T23:51:27;129.35;;;83.43;;
1010;SDS011;494;48.744;10.106;2024-01-27T23:53:58;121.82;;;78.72;;
1010;SDS011;494;48.744;10.106;2024-01-27T23:56:27;115.88;;;72.68;;
1010;SDS011;494;48.744;10.106;2024-01-27T23:58:56;115.15;;;71.55;;
